Terminal Aerodrome Forecast
Issued by NWS Corpus Christi, TX

Home | Current Version | Previous Version | Text Only | Print | Product List | Glossary On
Versions: 1 2 3 4 5 6 7 8 9 10 11 12 13 14 15 16 17 18 19 20 21 22 23 24
853
FTUS44 KCRP 202321
TAFVCT
TAF
KVCT 202321Z 2100/2124 VRB06KT P6SM SCT070
      TEMPO 2110/2113 5SM BR
     FM212200 14007KT P6SM SCT050=

USA.gov is the U.S. government's official web portal to all federal, state and local government web resources and services.